<?xml version="1.0" encoding="UTF-8" standalone="no" ?>
<gpx xmlns="http://www.topografix.com/GPX/1/1" xmlns:xsi="http://www.w3.org/2001/XMLSchema-instance" xsi:schemaLocation="http://www.topografix.com/GPX/1/1 http://www.topografix.com/GPX/1/1/gpx.xsd" version="1.1" creator="VisuGPX - https://www.visugpx.com">
  <metadata>
    <name>Sederon - J2 matin</name>
    <desc><![CDATA[Sederon - J2 matin bbbbbbbbbbbbbbbbbbbbbbbbbbbbbbbbbbbbbbbbbbbbbbbbbbbbbbbbbb]]></desc>
  </metadata>
  <trk>
    <name><![CDATA[9257102-Sederon - J2 matin]]></name>
    <trkseg>
      <trkpt lat="44.22931" lon="5.50522">
        <ele>835</ele>
        <time>2018-10-29T10:57:34Z</time>
      </trkpt>
      <trkpt lat="44.22902" lon="5.505">
        <ele>831</ele>
        <time>2018-10-29T10:58:34Z</time>
      </trkpt>
      <trkpt lat="44.22867" lon="5.50484">
        <ele>825</ele>
        <time>2018-10-29T10:59:34Z</time>
      </trkpt>
      <trkpt lat="44.22834" lon="5.50508">
        <ele>821</ele>
        <time>2018-10-29T11:00:34Z</time>
      </trkpt>
      <trkpt lat="44.22797" lon="5.50536">
        <ele>820</ele>
        <time>2018-10-29T11:01:34Z</time>
      </trkpt>
      <trkpt lat="44.22757" lon="5.50585">
        <ele>820</ele>
        <time>2018-10-29T11:02:34Z</time>
      </trkpt>
      <trkpt lat="44.22691" lon="5.50551">
        <ele>815</ele>
        <time>2018-10-29T11:03:34Z</time>
      </trkpt>
      <trkpt lat="44.22646" lon="5.50538">
        <ele>814</ele>
        <time>2018-10-29T11:04:34Z</time>
      </trkpt>
      <trkpt lat="44.22638" lon="5.50497">
        <ele>815</ele>
        <time>2018-10-29T11:05:34Z</time>
      </trkpt>
      <trkpt lat="44.22576" lon="5.50515">
        <ele>813</ele>
        <time>2018-10-29T11:06:34Z</time>
      </trkpt>
      <trkpt lat="44.22518" lon="5.50515">
        <ele>814</ele>
        <time>2018-10-29T11:07:34Z</time>
      </trkpt>
      <trkpt lat="44.22483" lon="5.50432">
        <ele>817</ele>
        <time>2018-10-29T11:08:34Z</time>
      </trkpt>
      <trkpt lat="44.22396" lon="5.5037">
        <ele>821</ele>
        <time>2018-10-29T11:09:34Z</time>
      </trkpt>
      <trkpt lat="44.22348" lon="5.50213">
        <ele>826</ele>
        <time>2018-10-29T11:10:34Z</time>
      </trkpt>
      <trkpt lat="44.22293" lon="5.50058">
        <ele>833</ele>
        <time>2018-10-29T11:11:34Z</time>
      </trkpt>
      <trkpt lat="44.22219" lon="5.49909">
        <ele>847</ele>
        <time>2018-10-29T11:12:34Z</time>
      </trkpt>
      <trkpt lat="44.22198" lon="5.49845">
        <ele>856</ele>
        <time>2018-10-29T11:13:34Z</time>
      </trkpt>
      <trkpt lat="44.22152" lon="5.49793">
        <ele>865</ele>
        <time>2018-10-29T11:14:34Z</time>
      </trkpt>
      <trkpt lat="44.22141" lon="5.4973">
        <ele>871</ele>
        <time>2018-10-29T11:15:34Z</time>
      </trkpt>
      <trkpt lat="44.22143" lon="5.49685">
        <ele>875</ele>
        <time>2018-10-29T11:16:34Z</time>
      </trkpt>
      <trkpt lat="44.22111" lon="5.49627">
        <ele>883</ele>
        <time>2018-10-29T11:17:34Z</time>
      </trkpt>
      <trkpt lat="44.22051" lon="5.49537">
        <ele>896</ele>
        <time>2018-10-29T11:18:34Z</time>
      </trkpt>
      <trkpt lat="44.22062" lon="5.49438">
        <ele>901</ele>
        <time>2018-10-29T11:19:34Z</time>
      </trkpt>
      <trkpt lat="44.22118" lon="5.49385">
        <ele>894</ele>
        <time>2018-10-29T11:20:34Z</time>
      </trkpt>
      <trkpt lat="44.22061" lon="5.49337">
        <ele>905</ele>
        <time>2018-10-29T11:21:34Z</time>
      </trkpt>
      <trkpt lat="44.21994" lon="5.49245">
        <ele>923</ele>
        <time>2018-10-29T11:22:34Z</time>
      </trkpt>
      <trkpt lat="44.21946" lon="5.4918">
        <ele>931</ele>
        <time>2018-10-29T11:23:34Z</time>
      </trkpt>
      <trkpt lat="44.21898" lon="5.49071">
        <ele>942</ele>
        <time>2018-10-29T11:24:34Z</time>
      </trkpt>
      <trkpt lat="44.21805" lon="5.49037">
        <ele>958</ele>
        <time>2018-10-29T11:25:34Z</time>
      </trkpt>
      <trkpt lat="44.21819" lon="5.48952">
        <ele>965</ele>
        <time>2018-10-29T11:26:34Z</time>
      </trkpt>
      <trkpt lat="44.21778" lon="5.48884">
        <ele>973</ele>
        <time>2018-10-29T11:27:34Z</time>
      </trkpt>
      <trkpt lat="44.21752" lon="5.4883">
        <ele>983</ele>
        <time>2018-10-29T11:28:34Z</time>
      </trkpt>
      <trkpt lat="44.21731" lon="5.48748">
        <ele>991</ele>
        <time>2018-10-29T11:29:34Z</time>
      </trkpt>
      <trkpt lat="44.21685" lon="5.48696">
        <ele>1002</ele>
        <time>2018-10-29T11:30:34Z</time>
      </trkpt>
      <trkpt lat="44.21647" lon="5.48671">
        <ele>1011</ele>
        <time>2018-10-29T11:31:34Z</time>
      </trkpt>
      <trkpt lat="44.21612" lon="5.48629">
        <ele>1023</ele>
        <time>2018-10-29T11:32:34Z</time>
      </trkpt>
      <trkpt lat="44.21576" lon="5.48645">
        <ele>1033</ele>
        <time>2018-10-29T11:33:34Z</time>
      </trkpt>
      <trkpt lat="44.21555" lon="5.48696">
        <ele>1040</ele>
        <time>2018-10-29T11:34:34Z</time>
      </trkpt>
      <trkpt lat="44.21592" lon="5.48817">
        <ele>1019</ele>
        <time>2018-10-29T11:35:34Z</time>
      </trkpt>
      <trkpt lat="44.2162" lon="5.48932">
        <ele>1004</ele>
        <time>2018-10-29T11:36:34Z</time>
      </trkpt>
      <trkpt lat="44.21601" lon="5.49055">
        <ele>1010</ele>
        <time>2018-10-29T11:37:34Z</time>
      </trkpt>
      <trkpt lat="44.2159" lon="5.49169">
        <ele>1015</ele>
        <time>2018-10-29T11:38:34Z</time>
      </trkpt>
      <trkpt lat="44.2158" lon="5.49246">
        <ele>1019</ele>
        <time>2018-10-29T11:39:34Z</time>
      </trkpt>
      <trkpt lat="44.21548" lon="5.49326">
        <ele>1014</ele>
        <time>2018-10-29T11:40:34Z</time>
      </trkpt>
      <trkpt lat="44.2148" lon="5.49266">
        <ele>1027</ele>
        <time>2018-10-29T11:41:34Z</time>
      </trkpt>
      <trkpt lat="44.21404" lon="5.49183">
        <ele>1026</ele>
        <time>2018-10-29T11:42:34Z</time>
      </trkpt>
      <trkpt lat="44.21409" lon="5.49089">
        <ele>1032</ele>
        <time>2018-10-29T11:43:34Z</time>
      </trkpt>
      <trkpt lat="44.21372" lon="5.49039">
        <ele>1037</ele>
        <time>2018-10-29T11:44:34Z</time>
      </trkpt>
      <trkpt lat="44.21307" lon="5.49069">
        <ele>1018</ele>
        <time>2018-10-29T11:45:34Z</time>
      </trkpt>
      <trkpt lat="44.21208" lon="5.49042">
        <ele>1008</ele>
        <time>2018-10-29T11:46:34Z</time>
      </trkpt>
      <trkpt lat="44.21152" lon="5.48954">
        <ele>1007</ele>
        <time>2018-10-29T11:47:34Z</time>
      </trkpt>
      <trkpt lat="44.21147" lon="5.48914">
        <ele>1012</ele>
        <time>2018-10-29T11:48:34Z</time>
      </trkpt>
      <trkpt lat="44.21096" lon="5.48943">
        <ele>1005</ele>
        <time>2018-10-29T11:49:34Z</time>
      </trkpt>
      <trkpt lat="44.21045" lon="5.48976">
        <ele>999</ele>
        <time>2018-10-29T11:50:34Z</time>
      </trkpt>
      <trkpt lat="44.21006" lon="5.48968">
        <ele>1002</ele>
        <time>2018-10-29T11:51:34Z</time>
      </trkpt>
      <trkpt lat="44.20964" lon="5.48922">
        <ele>1008</ele>
        <time>2018-10-29T11:52:34Z</time>
      </trkpt>
      <trkpt lat="44.20927" lon="5.48891">
        <ele>1011</ele>
        <time>2018-10-29T11:53:34Z</time>
      </trkpt>
      <trkpt lat="44.20888" lon="5.489">
        <ele>1007</ele>
        <time>2018-10-29T11:54:34Z</time>
      </trkpt>
      <trkpt lat="44.2083" lon="5.48925">
        <ele>1001</ele>
        <time>2018-10-29T11:55:34Z</time>
      </trkpt>
      <trkpt lat="44.20754" lon="5.48954">
        <ele>1000</ele>
        <time>2018-10-29T11:56:34Z</time>
      </trkpt>
      <trkpt lat="44.2079" lon="5.48996">
        <ele>989</ele>
        <time>2018-10-29T11:57:34Z</time>
      </trkpt>
      <trkpt lat="44.20883" lon="5.49035">
        <ele>978</ele>
        <time>2018-10-29T11:58:34Z</time>
      </trkpt>
      <trkpt lat="44.20906" lon="5.49196">
        <ele>955</ele>
        <time>2018-10-29T11:59:34Z</time>
      </trkpt>
      <trkpt lat="44.20949" lon="5.49347">
        <ele>935</ele>
        <time>2018-10-29T12:00:34Z</time>
      </trkpt>
      <trkpt lat="44.20961" lon="5.49497">
        <ele>919</ele>
        <time>2018-10-29T12:01:34Z</time>
      </trkpt>
      <trkpt lat="44.20966" lon="5.49598">
        <ele>908</ele>
        <time>2018-10-29T12:02:34Z</time>
      </trkpt>
      <trkpt lat="44.20964" lon="5.4973">
        <ele>899</ele>
        <time>2018-10-29T12:03:34Z</time>
      </trkpt>
      <trkpt lat="44.20995" lon="5.49835">
        <ele>886</ele>
        <time>2018-10-29T12:04:34Z</time>
      </trkpt>
      <trkpt lat="44.21063" lon="5.49892">
        <ele>885</ele>
        <time>2018-10-29T12:05:34Z</time>
      </trkpt>
      <trkpt lat="44.21139" lon="5.50001">
        <ele>889</ele>
        <time>2018-10-29T12:06:34Z</time>
      </trkpt>
      <trkpt lat="44.21206" lon="5.50123">
        <ele>892</ele>
        <time>2018-10-29T12:07:34Z</time>
      </trkpt>
      <trkpt lat="44.21187" lon="5.50244">
        <ele>885</ele>
        <time>2018-10-29T12:08:34Z</time>
      </trkpt>
      <trkpt lat="44.21211" lon="5.50444">
        <ele>883</ele>
        <time>2018-10-29T12:09:34Z</time>
      </trkpt>
      <trkpt lat="44.21228" lon="5.50675">
        <ele>871</ele>
        <time>2018-10-29T12:10:34Z</time>
      </trkpt>
      <trkpt lat="44.21261" lon="5.50769">
        <ele>869</ele>
        <time>2018-10-29T12:11:34Z</time>
      </trkpt>
      <trkpt lat="44.21292" lon="5.50917">
        <ele>867</ele>
        <time>2018-10-29T12:12:34Z</time>
      </trkpt>
      <trkpt lat="44.21365" lon="5.51045">
        <ele>868</ele>
        <time>2018-10-29T12:13:34Z</time>
      </trkpt>
      <trkpt lat="44.21381" lon="5.5111">
        <ele>864</ele>
        <time>2018-10-29T12:14:34Z</time>
      </trkpt>
      <trkpt lat="44.21426" lon="5.51228">
        <ele>859</ele>
        <time>2018-10-29T12:15:34Z</time>
      </trkpt>
      <trkpt lat="44.21458" lon="5.51345">
        <ele>860</ele>
        <time>2018-10-29T12:16:34Z</time>
      </trkpt>
      <trkpt lat="44.21475" lon="5.51495">
        <ele>850</ele>
        <time>2018-10-29T12:17:34Z</time>
      </trkpt>
      <trkpt lat="44.21508" lon="5.51668">
        <ele>846</ele>
        <time>2018-10-29T12:18:34Z</time>
      </trkpt>
      <trkpt lat="44.21543" lon="5.51819">
        <ele>843</ele>
        <time>2018-10-29T12:19:34Z</time>
      </trkpt>
      <trkpt lat="44.21603" lon="5.51969">
        <ele>845</ele>
        <time>2018-10-29T12:20:34Z</time>
      </trkpt>
      <trkpt lat="44.21602" lon="5.52115">
        <ele>837</ele>
        <time>2018-10-29T12:21:34Z</time>
      </trkpt>
      <trkpt lat="44.21614" lon="5.52263">
        <ele>828</ele>
        <time>2018-10-29T12:22:34Z</time>
      </trkpt>
      <trkpt lat="44.21592" lon="5.52399">
        <ele>824</ele>
        <time>2018-10-29T12:23:34Z</time>
      </trkpt>
      <trkpt lat="44.21596" lon="5.5264">
        <ele>823</ele>
        <time>2018-10-29T12:24:34Z</time>
      </trkpt>
      <trkpt lat="44.21554" lon="5.52707">
        <ele>821</ele>
        <time>2018-10-29T12:25:34Z</time>
      </trkpt>
      <trkpt lat="44.2153" lon="5.52653">
        <ele>820</ele>
        <time>2018-10-29T12:26:34Z</time>
      </trkpt>
      <trkpt lat="44.21543" lon="5.5251">
        <ele>823</ele>
        <time>2018-10-29T12:27:34Z</time>
      </trkpt>
      <trkpt lat="44.21506" lon="5.52494">
        <ele>825</ele>
        <time>2018-10-29T12:28:34Z</time>
      </trkpt>
      <trkpt lat="44.21477" lon="5.52577">
        <ele>827</ele>
        <time>2018-10-29T12:29:34Z</time>
      </trkpt>
      <trkpt lat="44.21448" lon="5.52687">
        <ele>828</ele>
        <time>2018-10-29T12:30:34Z</time>
      </trkpt>
      <trkpt lat="44.21443" lon="5.52732">
        <ele>826</ele>
        <time>2018-10-29T12:31:34Z</time>
      </trkpt>
      <trkpt lat="44.21418" lon="5.52803">
        <ele>822</ele>
        <time>2018-10-29T12:32:34Z</time>
      </trkpt>
      <trkpt lat="44.21382" lon="5.52868">
        <ele>822</ele>
        <time>2018-10-29T12:33:34Z</time>
      </trkpt>
      <trkpt lat="44.21369" lon="5.52916">
        <ele>819</ele>
        <time>2018-10-29T12:34:34Z</time>
      </trkpt>
      <trkpt lat="44.2132" lon="5.52998">
        <ele>820</ele>
        <time>2018-10-29T12:35:34Z</time>
      </trkpt>
      <trkpt lat="44.21299" lon="5.53088">
        <ele>819</ele>
        <time>2018-10-29T12:36:34Z</time>
      </trkpt>
      <trkpt lat="44.21277" lon="5.53212">
        <ele>816</ele>
        <time>2018-10-29T12:37:34Z</time>
      </trkpt>
      <trkpt lat="44.21245" lon="5.53245">
        <ele>820</ele>
        <time>2018-10-29T12:38:34Z</time>
      </trkpt>
      <trkpt lat="44.21201" lon="5.53196">
        <ele>828</ele>
        <time>2018-10-29T12:39:34Z</time>
      </trkpt>
      <trkpt lat="44.21164" lon="5.53245">
        <ele>821</ele>
        <time>2018-10-29T12:40:34Z</time>
      </trkpt>
      <trkpt lat="44.21116" lon="5.53357">
        <ele>816</ele>
        <time>2018-10-29T12:41:34Z</time>
      </trkpt>
      <trkpt lat="44.21047" lon="5.53438">
        <ele>804</ele>
        <time>2018-10-29T12:42:34Z</time>
      </trkpt>
      <trkpt lat="44.2097" lon="5.53398">
        <ele>813</ele>
        <time>2018-10-29T12:43:34Z</time>
      </trkpt>
      <trkpt lat="44.20957" lon="5.53469">
        <ele>804</ele>
        <time>2018-10-29T12:44:34Z</time>
      </trkpt>
      <trkpt lat="44.20884" lon="5.53555">
        <ele>804</ele>
        <time>2018-10-29T12:45:34Z</time>
      </trkpt>
      <trkpt lat="44.20777" lon="5.53622">
        <ele>812</ele>
        <time>2018-10-29T12:46:34Z</time>
      </trkpt>
      <trkpt lat="44.2076" lon="5.53656">
        <ele>812</ele>
        <time>2018-10-29T12:47:34Z</time>
      </trkpt>
      <trkpt lat="44.20676" lon="5.53642">
        <ele>819</ele>
        <time>2018-10-29T12:48:34Z</time>
      </trkpt>
      <trkpt lat="44.20579" lon="5.53689">
        <ele>812</ele>
        <time>2018-10-29T12:49:34Z</time>
      </trkpt>
      <trkpt lat="44.2053" lon="5.53669">
        <ele>807</ele>
        <time>2018-10-29T12:50:34Z</time>
      </trkpt>
      <trkpt lat="44.20469" lon="5.5364">
        <ele>813</ele>
        <time>2018-10-29T12:51:34Z</time>
      </trkpt>
      <trkpt lat="44.20395" lon="5.53638">
        <ele>812</ele>
        <time>2018-10-29T12:52:34Z</time>
      </trkpt>
      <trkpt lat="44.20329" lon="5.53667">
        <ele>807</ele>
        <time>2018-10-29T12:53:34Z</time>
      </trkpt>
      <trkpt lat="44.20258" lon="5.53683">
        <ele>811</ele>
        <time>2018-10-29T12:54:34Z</time>
      </trkpt>
      <trkpt lat="44.20011" lon="5.53705">
        <ele>813</ele>
        <time>2018-10-29T12:55:34Z</time>
      </trkpt>
      <trkpt lat="44.19928" lon="5.53732">
        <ele>814</ele>
        <time>2018-10-29T12:56:34Z</time>
      </trkpt>
      <trkpt lat="44.19838" lon="5.53757">
        <ele>816</ele>
        <time>2018-10-29T12:57:34Z</time>
      </trkpt>
      <trkpt lat="44.19805" lon="5.5368">
        <ele>817</ele>
        <time>2018-10-29T12:58:34Z</time>
      </trkpt>
      <trkpt lat="44.19769" lon="5.53589">
        <ele>818</ele>
        <time>2018-10-29T12:59:34Z</time>
      </trkpt>
      <trkpt lat="44.19725" lon="5.53579">
        <ele>819</ele>
        <time>2018-10-29T13:00:34Z</time>
      </trkpt>
      <trkpt lat="44.19624" lon="5.53481">
        <ele>824</ele>
        <time>2018-10-29T13:01:34Z</time>
      </trkpt>
      <trkpt lat="44.1953" lon="5.53429">
        <ele>828</ele>
        <time>2018-10-29T13:02:34Z</time>
      </trkpt>
      <trkpt lat="44.19473" lon="5.53382">
        <ele>832</ele>
        <time>2018-10-29T13:03:34Z</time>
      </trkpt>
      <trkpt lat="44.19469" lon="5.53326">
        <ele>833</ele>
        <time>2018-10-29T13:04:34Z</time>
      </trkpt>
      <trkpt lat="44.1942" lon="5.53218">
        <ele>835</ele>
        <time>2018-10-29T13:05:34Z</time>
      </trkpt>
      <trkpt lat="44.19401" lon="5.53209">
        <ele>836</ele>
        <time>2018-10-29T13:06:34Z</time>
      </trkpt>
      <trkpt lat="44.19371" lon="5.53178">
        <ele>839</ele>
        <time>2018-10-29T13:07:34Z</time>
      </trkpt>
      <trkpt lat="44.19327" lon="5.53144">
        <ele>843</ele>
        <time>2018-10-29T13:08:34Z</time>
      </trkpt>
      <trkpt lat="44.1927" lon="5.53128">
        <ele>854</ele>
        <time>2018-10-29T13:09:34Z</time>
      </trkpt>
      <trkpt lat="44.19262" lon="5.53075">
        <ele>858</ele>
        <time>2018-10-29T13:10:34Z</time>
      </trkpt>
      <trkpt lat="44.19221" lon="5.52954">
        <ele>873</ele>
        <time>2018-10-29T13:11:34Z</time>
      </trkpt>
      <trkpt lat="44.19192" lon="5.52853">
        <ele>891</ele>
        <time>2018-10-29T13:12:34Z</time>
      </trkpt>
      <trkpt lat="44.19214" lon="5.5275">
        <ele>893</ele>
        <time>2018-10-29T13:13:34Z</time>
      </trkpt>
      <trkpt lat="44.19191" lon="5.52556">
        <ele>907</ele>
        <time>2018-10-29T13:14:34Z</time>
      </trkpt>
      <trkpt lat="44.1917" lon="5.52476">
        <ele>919</ele>
        <time>2018-10-29T13:15:34Z</time>
      </trkpt>
      <trkpt lat="44.19178" lon="5.52438">
        <ele>919</ele>
        <time>2018-10-29T13:16:34Z</time>
      </trkpt>
      <trkpt lat="44.19143" lon="5.5207">
        <ele>967</ele>
        <time>2018-10-29T13:17:34Z</time>
      </trkpt>
      <trkpt lat="44.19128" lon="5.51978">
        <ele>979</ele>
        <time>2018-10-29T13:18:34Z</time>
      </trkpt>
      <trkpt lat="44.1917" lon="5.51785">
        <ele>975</ele>
        <time>2018-10-29T13:19:34Z</time>
      </trkpt>
      <trkpt lat="44.19228" lon="5.51594">
        <ele>966</ele>
        <time>2018-10-29T13:20:34Z</time>
      </trkpt>
      <trkpt lat="44.19258" lon="5.51403">
        <ele>971</ele>
        <time>2018-10-29T13:21:34Z</time>
      </trkpt>
      <trkpt lat="44.19318" lon="5.51379">
        <ele>970</ele>
        <time>2018-10-29T13:22:34Z</time>
      </trkpt>
      <trkpt lat="44.19325" lon="5.51464">
        <ele>965</ele>
        <time>2018-10-29T13:23:34Z</time>
      </trkpt>
      <trkpt lat="44.19406" lon="5.51199">
        <ele>987</ele>
        <time>2018-10-29T13:24:34Z</time>
      </trkpt>
      <trkpt lat="44.19412" lon="5.51159">
        <ele>990</ele>
        <time>2018-10-29T13:25:34Z</time>
      </trkpt>
      <trkpt lat="44.1945" lon="5.51101">
        <ele>997</ele>
        <time>2018-10-29T13:26:34Z</time>
      </trkpt>
      <trkpt lat="44.19461" lon="5.51002">
        <ele>1004</ele>
        <time>2018-10-29T13:27:34Z</time>
      </trkpt>
      <trkpt lat="44.19442" lon="5.50935">
        <ele>1009</ele>
        <time>2018-10-29T13:28:34Z</time>
      </trkpt>
      <trkpt lat="44.19421" lon="5.50872">
        <ele>1016</ele>
        <time>2018-10-29T13:29:34Z</time>
      </trkpt>
      <trkpt lat="44.19386" lon="5.50813">
        <ele>1025</ele>
        <time>2018-10-29T13:30:34Z</time>
      </trkpt>
      <trkpt lat="44.19423" lon="5.5082">
        <ele>1023</ele>
        <time>2018-10-29T13:31:34Z</time>
      </trkpt>
      <trkpt lat="44.19479" lon="5.50731">
        <ele>1043</ele>
        <time>2018-10-29T13:32:34Z</time>
      </trkpt>
      <trkpt lat="44.19544" lon="5.50607">
        <ele>1067</ele>
        <time>2018-10-29T13:33:34Z</time>
      </trkpt>
      <trkpt lat="44.19492" lon="5.50529">
        <ele>1070</ele>
        <time>2018-10-29T13:34:34Z</time>
      </trkpt>
      <trkpt lat="44.19398" lon="5.50408">
        <ele>1074</ele>
        <time>2018-10-29T13:35:34Z</time>
      </trkpt>
      <trkpt lat="44.19332" lon="5.5043">
        <ele>1072</ele>
        <time>2018-10-29T13:36:34Z</time>
      </trkpt>
      <trkpt lat="44.19303" lon="5.50461">
        <ele>1072</ele>
        <time>2018-10-29T13:37:34Z</time>
      </trkpt>
      <trkpt lat="44.19263" lon="5.50461">
        <ele>1079</ele>
        <time>2018-10-29T13:38:34Z</time>
      </trkpt>
      <trkpt lat="44.19205" lon="5.50504">
        <ele>1087</ele>
        <time>2018-10-29T13:39:34Z</time>
      </trkpt>
      <trkpt lat="44.1917" lon="5.50522">
        <ele>1095</ele>
        <time>2018-10-29T13:40:34Z</time>
      </trkpt>
      <trkpt lat="44.19153" lon="5.50587">
        <ele>1093</ele>
        <time>2018-10-29T13:41:34Z</time>
      </trkpt>
      <trkpt lat="44.19125" lon="5.5063">
        <ele>1099</ele>
        <time>2018-10-29T13:42:34Z</time>
      </trkpt>
      <trkpt lat="44.19069" lon="5.50733">
        <ele>1108</ele>
        <time>2018-10-29T13:43:34Z</time>
      </trkpt>
      <trkpt lat="44.19027" lon="5.50822">
        <ele>1111</ele>
        <time>2018-10-29T13:44:34Z</time>
      </trkpt>
      <trkpt lat="44.18949" lon="5.50901">
        <ele>1118</ele>
        <time>2018-10-29T13:45:34Z</time>
      </trkpt>
      <trkpt lat="44.19027" lon="5.50737">
        <ele>1129</ele>
        <time>2018-10-29T13:46:34Z</time>
      </trkpt>
      <trkpt lat="44.19087" lon="5.50464">
        <ele>1146</ele>
        <time>2018-10-29T13:47:34Z</time>
      </trkpt>
      <trkpt lat="44.19205" lon="5.50141">
        <ele>1166</ele>
        <time>2018-10-29T13:48:34Z</time>
      </trkpt>
      <trkpt lat="44.19297" lon="5.49963">
        <ele>1178</ele>
        <time>2018-10-29T13:49:34Z</time>
      </trkpt>
      <trkpt lat="44.19417" lon="5.4989">
        <ele>1184</ele>
        <time>2018-10-29T13:50:34Z</time>
      </trkpt>
      <trkpt lat="44.19539" lon="5.49941">
        <ele>1183</ele>
        <time>2018-10-29T13:51:34Z</time>
      </trkpt>
      <trkpt lat="44.19745" lon="5.49993">
        <ele>1203</ele>
        <time>2018-10-29T13:52:34Z</time>
      </trkpt>
      <trkpt lat="44.19834" lon="5.49979">
        <ele>1202</ele>
        <time>2018-10-29T13:53:34Z</time>
      </trkpt>
      <trkpt lat="44.1991" lon="5.50118">
        <ele>1219</ele>
        <time>2018-10-29T13:54:34Z</time>
      </trkpt>
      <trkpt lat="44.19989" lon="5.50275">
        <ele>1228</ele>
        <time>2018-10-29T13:55:34Z</time>
      </trkpt>
      <trkpt lat="44.2005" lon="5.50425">
        <ele>1230</ele>
        <time>2018-10-29T13:56:34Z</time>
      </trkpt>
      <trkpt lat="44.20024" lon="5.50587">
        <ele>1227</ele>
        <time>2018-10-29T13:57:34Z</time>
      </trkpt>
      <trkpt lat="44.20179" lon="5.50639">
        <ele>1258</ele>
        <time>2018-10-29T13:58:34Z</time>
      </trkpt>
      <trkpt lat="44.20315" lon="5.50603">
        <ele>1267</ele>
        <time>2018-10-29T13:59:34Z</time>
      </trkpt>
      <trkpt lat="44.20394" lon="5.5072">
        <ele>1285</ele>
        <time>2018-10-29T14:00:34Z</time>
      </trkpt>
      <trkpt lat="44.20367" lon="5.50743">
        <ele>1296</ele>
        <time>2018-10-29T14:01:34Z</time>
      </trkpt>
      <trkpt lat="44.20357" lon="5.50772">
        <ele>1303</ele>
        <time>2018-10-29T14:02:34Z</time>
      </trkpt>
      <trkpt lat="44.20392" lon="5.50813">
        <ele>1303</ele>
        <time>2018-10-29T14:03:34Z</time>
      </trkpt>
      <trkpt lat="44.20401" lon="5.50847">
        <ele>1306</ele>
        <time>2018-10-29T14:04:34Z</time>
      </trkpt>
      <trkpt lat="44.20374" lon="5.50835">
        <ele>1310</ele>
        <time>2018-10-29T14:05:34Z</time>
      </trkpt>
      <trkpt lat="44.20355" lon="5.50844">
        <ele>1316</ele>
        <time>2018-10-29T14:06:34Z</time>
      </trkpt>
      <trkpt lat="44.20369" lon="5.50878">
        <ele>1318</ele>
        <time>2018-10-29T14:07:34Z</time>
      </trkpt>
      <trkpt lat="44.20374" lon="5.50904">
        <ele>1321</ele>
        <time>2018-10-29T14:08:34Z</time>
      </trkpt>
      <trkpt lat="44.20368" lon="5.50925">
        <ele>1326</ele>
        <time>2018-10-29T14:09:34Z</time>
      </trkpt>
      <trkpt lat="44.20369" lon="5.50948">
        <ele>1329</ele>
        <time>2018-10-29T14:10:34Z</time>
      </trkpt>
      <trkpt lat="44.20375" lon="5.50994">
        <ele>1334</ele>
        <time>2018-10-29T14:11:34Z</time>
      </trkpt>
      <trkpt lat="44.20392" lon="5.5101">
        <ele>1331</ele>
        <time>2018-10-29T14:12:34Z</time>
      </trkpt>
      <trkpt lat="44.20386" lon="5.51012">
        <ele>1333</ele>
        <time>2018-10-29T14:13:34Z</time>
      </trkpt>
      <trkpt lat="44.20378" lon="5.51013">
        <ele>1335</ele>
        <time>2018-10-29T14:14:34Z</time>
      </trkpt>
      <trkpt lat="44.20368" lon="5.5097">
        <ele>1333</ele>
        <time>2018-10-29T14:15:34Z</time>
      </trkpt>
      <trkpt lat="44.2036" lon="5.50941">
        <ele>1331</ele>
        <time>2018-10-29T14:16:34Z</time>
      </trkpt>
      <trkpt lat="44.20344" lon="5.5089">
        <ele>1327</ele>
        <time>2018-10-29T14:17:34Z</time>
      </trkpt>
      <trkpt lat="44.20318" lon="5.50861">
        <ele>1322</ele>
        <time>2018-10-29T14:18:34Z</time>
      </trkpt>
      <trkpt lat="44.20295" lon="5.50848">
        <ele>1317</ele>
        <time>2018-10-29T14:19:34Z</time>
      </trkpt>
      <trkpt lat="44.2026" lon="5.50885">
        <ele>1318</ele>
        <time>2018-10-29T14:20:34Z</time>
      </trkpt>
      <trkpt lat="44.2018" lon="5.50878">
        <ele>1287</ele>
        <time>2018-10-29T14:21:34Z</time>
      </trkpt>
      <trkpt lat="44.20234" lon="5.50842">
        <ele>1305</ele>
        <time>2018-10-29T14:22:34Z</time>
      </trkpt>
      <trkpt lat="44.20252" lon="5.50762">
        <ele>1296</ele>
        <time>2018-10-29T14:23:34Z</time>
      </trkpt>
      <trkpt lat="44.2028" lon="5.50695">
        <ele>1284</ele>
        <time>2018-10-29T14:24:34Z</time>
      </trkpt>
      <trkpt lat="44.20349" lon="5.50681">
        <ele>1284</ele>
        <time>2018-10-29T14:25:34Z</time>
      </trkpt>
      <trkpt lat="44.20378" lon="5.5055">
        <ele>1247</ele>
        <time>2018-10-29T14:26:34Z</time>
      </trkpt>
      <trkpt lat="44.20393" lon="5.50374">
        <ele>1208</ele>
        <time>2018-10-29T14:27:34Z</time>
      </trkpt>
      <trkpt lat="44.20314" lon="5.50331">
        <ele>1203</ele>
        <time>2018-10-29T14:28:34Z</time>
      </trkpt>
      <trkpt lat="44.20296" lon="5.50298">
        <ele>1199</ele>
        <time>2018-10-29T14:29:34Z</time>
      </trkpt>
      <trkpt lat="44.20265" lon="5.50318">
        <ele>1195</ele>
        <time>2018-10-29T14:30:34Z</time>
      </trkpt>
      <trkpt lat="44.20298" lon="5.50337">
        <ele>1201</ele>
        <time>2018-10-29T14:31:34Z</time>
      </trkpt>
      <trkpt lat="44.20292" lon="5.50327">
        <ele>1199</ele>
        <time>2018-10-29T14:32:34Z</time>
      </trkpt>
    </trkseg>
  </trk>
</gpx>